sensor_id;sensor_type;location;lat;lon;timestamp;temperature;humidity
43671;DHT22;29267;50.906;7.248;2023-04-07T00:00:39;7.40;99.90
43671;DHT22;29267;50.906;7.248;2023-04-07T00:03:05;7.40;99.90
43671;DHT22;29267;50.906;7.248;2023-04-07T00:05:32;7.50;99.90
43671;DHT22;29267;50.906;7.248;2023-04-07T00:07:57;7.50;99.90
43671;DHT22;29267;50.906;7.248;2023-04-07T00:10:24;7.50;99.90
43671;DHT22;29267;50.906;7.248;2023-04-07T00:12:49;7.50;99.90
43671;DHT22;29267;50.906;7.248;2023-04-07T00:15:15;7.50;99.90
43671;DHT22;29267;50.906;7.248;2023-04-07T00:17:41;7.50;99.90
43671;DHT22;29267;50.906;7.248;2023-04-07T00:20:07;7.50;99.90
43671;DHT22;29267;50.906;7.248;2023-04-07T00:22:33;7.50;99.90
43671;DHT22;29267;50.906;7.248;2023-04-07T00:24:58;7.50;99.90
43671;DHT22;29267;50.906;7.248;2023-04-07T00:27:24;7.40;99.90
43671;DHT22;29267;50.906;7.248;2023-04-07T00:29:49;7.50;99.90
43671;DHT22;29267;50.906;7.248;2023-04-07T00:32:15;7.40;99.90
43671;DHT22;29267;50.906;7.248;2023-04-07T00:34:40;7.50;99.90
43671;DHT22;29267;50.906;7.248;2023-04-07T00:37:06;7.50;99.90
43671;DHT22;29267;50.906;7.248;2023-04-07T00:39:32;7.50;99.90
43671;DHT22;29267;50.906;7.248;2023-04-07T00:41:57;7.50;99.90
43671;DHT22;29267;50.906;7.248;2023-04-07T00:44:23;7.50;99.90
43671;DHT22;29267;50.906;7.248;2023-04-07T00:46:48;7.50;99.90
43671;DHT22;29267;50.906;7.248;2023-04-07T00:49:15;7.50;99.90
43671;DHT22;29267;50.906;7.248;2023-04-07T00:51:42;7.50;99.90
43671;DHT22;29267;50.906;7.248;2023-04-07T00:54:08;7.50;99.90
43671;DHT22;29267;50.906;7.248;2023-04-07T00:56:34;7.50;99.90
43671;DHT22;29267;50.906;7.248;2023-04-07T00:59:01;7.50;99.90
43671;DHT22;29267;50.906;7.248;2023-04-07T01:01:44;7.50;99.90
43671;DHT22;29267;50.906;7.248;2023-04-07T01:04:58;7.50;99.90
43671;DHT22;29267;50.906;7.248;2023-04-07T01:07:35;7.50;99.90
43671;DHT22;29267;50.906;7.248;2023-04-07T01:10:11;7.50;99.90
43671;DHT22;29267;50.906;7.248;2023-04-07T01:12:48;7.60;99.90
43671;DHT22;29267;50.906;7.248;2023-04-07T01:15:17;7.60;99.90
43671;DHT22;29267;50.906;7.248;2023-04-07T01:17:48;7.60;99.90
43671;DHT22;29267;50.906;7.248;2023-04-07T01:20:20;7.60;99.90
43671;DHT22;29267;50.906;7.248;2023-04-07T01:22:53;7.60;99.90
43671;DHT22;29267;50.906;7.248;2023-04-07T01:30:53;7.60;99.90
43671;DHT22;29267;50.906;7.248;2023-04-07T01:33:21;7.60;99.90
43671;DHT22;29267;50.906;7.248;2023-04-07T01:35:48;7.60;99.90
43671;DHT22;29267;50.906;7.248;2023-04-07T01:38:14;7.50;99.90
43671;DHT22;29267;50.906;7.248;2023-04-07T01:40:40;7.60;99.90
43671;DHT22;29267;50.906;7.248;2023-04-07T01:43:07;7.60;99.90
43671;DHT22;29267;50.906;7.248;2023-04-07T01:45:34;7.60;99.90
43671;DHT22;29267;50.906;7.248;2023-04-07T01:48:00;7.60;99.90
43671;DHT22;29267;50.906;7.248;2023-04-07T01:50:27;7.60;99.90
43671;DHT22;29267;50.906;7.248;2023-04-07T01:52:54;7.60;99.90
43671;DHT22;29267;50.906;7.248;2023-04-07T01:55:20;7.60;99.90
43671;DHT22;29267;50.906;7.248;2023-04-07T01:57:47;7.60;99.90
43671;DHT22;29267;50.906;7.248;2023-04-07T02:00:13;7.60;99.90
43671;DHT22;29267;50.906;7.248;2023-04-07T02:02:41;7.60;99.90
43671;DHT22;29267;50.906;7.248;2023-04-07T02:05:11;7.50;99.90
43671;DHT22;29267;50.906;7.248;2023-04-07T02:08:03;7.50;99.90
43671;DHT22;29267;50.906;7.248;2023-04-07T02:10:30;7.50;99.90
43671;DHT22;29267;50.906;7.248;2023-04-07T02:12:58;7.60;99.90
43671;DHT22;29267;50.906;7.248;2023-04-07T02:15:25;7.50;99.90
43671;DHT22;29267;50.906;7.248;2023-04-07T02:17:52;7.60;99.90
43671;DHT22;29267;50.906;7.248;2023-04-07T02:20:19;7.50;99.90
43671;DHT22;29267;50.906;7.248;2023-04-07T02:22:46;7.60;99.90
43671;DHT22;29267;50.906;7.248;2023-04-07T02:25:23;7.60;99.90
43671;DHT22;29267;50.906;7.248;2023-04-07T02:27:49;7.60;99.90
43671;DHT22;29267;50.906;7.248;2023-04-07T02:30:15;7.60;99.90
43671;DHT22;29267;50.906;7.248;2023-04-07T02:32:40;7.60;99.90
43671;DHT22;29267;50.906;7.248;2023-04-07T02:35:06;7.70;99.90
43671;DHT22;29267;50.906;7.248;2023-04-07T02:37:32;7.70;99.90
43671;DHT22;29267;50.906;7.248;2023-04-07T02:39:57;7.70;99.90
43671;DHT22;29267;50.906;7.248;2023-04-07T02:42:23;7.70;99.90
43671;DHT22;29267;50.906;7.248;2023-04-07T02:44:49;7.70;99.90
43671;DHT22;29267;50.906;7.248;2023-04-07T02:47:15;7.70;99.90
43671;DHT22;29267;50.906;7.248;2023-04-07T02:49:40;7.70;99.90
43671;DHT22;29267;50.906;7.248;2023-04-07T02:52:06;7.70;99.90
43671;DHT22;29267;50.906;7.248;2023-04-07T02:54:32;7.70;99.90
43671;DHT22;29267;50.906;7.248;2023-04-07T02:56:57;7.70;99.90
43671;DHT22;29267;50.906;7.248;2023-04-07T02:59:23;7.70;99.90
43671;DHT22;29267;50.906;7.248;2023-04-07T03:01:48;7.70;99.90
43671;DHT22;29267;50.906;7.248;2023-04-07T03:04:14;7.70;99.90
43671;DHT22;29267;50.906;7.248;2023-04-07T03:06:40;7.70;99.90
43671;DHT22;29267;50.906;7.248;2023-04-07T03:09:05;7.70;99.90
43671;DHT22;29267;50.906;7.248;2023-04-07T03:11:31;7.70;99.90
43671;DHT22;29267;50.906;7.248;2023-04-07T03:13:57;7.70;99.90
43671;DHT22;29267;50.906;7.248;2023-04-07T03:16:22;7.70;99.90
43671;DHT22;29267;50.906;7.248;2023-04-07T03:18:48;7.60;99.90
43671;DHT22;29267;50.906;7.248;2023-04-07T03:21:13;7.70;99.90
43671;DHT22;29267;50.906;7.248;2023-04-07T03:23:39;7.70;99.90
43671;DHT22;29267;50.906;7.248;2023-04-07T03:26:05;7.70;99.90
43671;DHT22;29267;50.906;7.248;2023-04-07T03:28:31;7.70;99.90
43671;DHT22;29267;50.906;7.248;2023-04-07T03:30:56;7.70;99.90
43671;DHT22;29267;50.906;7.248;2023-04-07T03:33:22;7.70;99.90
43671;DHT22;29267;50.906;7.248;2023-04-07T03:35:47;7.70;99.90
43671;DHT22;29267;50.906;7.248;2023-04-07T03:38:13;7.70;99.90
43671;DHT22;29267;50.906;7.248;2023-04-07T03:40:38;7.70;99.90
43671;DHT22;29267;50.906;7.248;2023-04-07T03:43:04;7.70;99.90
43671;DHT22;29267;50.906;7.248;2023-04-07T03:45:32;7.60;99.90
43671;DHT22;29267;50.906;7.248;2023-04-07T03:47:58;7.70;99.90
43671;DHT22;29267;50.906;7.248;2023-04-07T03:50:23;7.70;99.90
43671;DHT22;29267;50.906;7.248;2023-04-07T03:52:49;7.70;99.90
43671;DHT22;29267;50.906;7.248;2023-04-07T03:55:14;7.70;99.90
43671;DHT22;29267;50.906;7.248;2023-04-07T03:57:40;7.70;99.90
43671;DHT22;29267;50.906;7.248;2023-04-07T04:00:06;7.70;99.90
43671;DHT22;29267;50.906;7.248;2023-04-07T04:02:32;7.70;99.90
43671;DHT22;29267;50.906;7.248;2023-04-07T04:04:58;7.70;99.90
43671;DHT22;29267;50.906;7.248;2023-04-07T04:07:23;7.70;99.90
43671;DHT22;29267;50.906;7.248;2023-04-07T04:09:50;7.70;99.90
43671;DHT22;29267;50.906;7.248;2023-04-07T04:12:16;7.80;99.90
43671;DHT22;29267;50.906;7.248;2023-04-07T04:14:41;7.80;99.90
43671;DHT22;29267;50.906;7.248;2023-04-07T04:17:07;7.70;99.90
43671;DHT22;29267;50.906;7.248;2023-04-07T04:19:33;7.70;99.90
43671;DHT22;29267;50.906;7.248;2023-04-07T04:21:58;7.70;99.90
43671;DHT22;29267;50.906;7.248;2023-04-07T04:24:24;7.70;99.90
43671;DHT22;29267;50.906;7.248;2023-04-07T04:26:49;7.80;99.90
43671;DHT22;29267;50.906;7.248;2023-04-07T04:29:15;7.80;99.90
43671;DHT22;29267;50.906;7.248;2023-04-07T04:31:40;7.80;99.90
43671;DHT22;29267;50.906;7.248;2023-04-07T04:34:06;7.80;99.90
43671;DHT22;29267;50.906;7.248;2023-04-07T04:36:32;7.80;99.90
43671;DHT22;29267;50.906;7.248;2023-04-07T04:38:57;7.80;99.90
43671;DHT22;29267;50.906;7.248;2023-04-07T04:41:23;7.90;99.90
43671;DHT22;29267;50.906;7.248;2023-04-07T04:43:48;7.90;99.90
43671;DHT22;29267;50.906;7.248;2023-04-07T04:46:14;7.90;99.90
43671;DHT22;29267;50.906;7.248;2023-04-07T04:48:39;7.90;99.90
43671;DHT22;29267;50.906;7.248;2023-04-07T04:51:06;8.00;99.90
43671;DHT22;29267;50.906;7.248;2023-04-07T04:53:32;8.00;99.90
43671;DHT22;29267;50.906;7.248;2023-04-07T04:55:57;8.00;99.90
43671;DHT22;29267;50.906;7.248;2023-04-07T04:58:23;8.00;99.90
43671;DHT22;29267;50.906;7.248;2023-04-07T05:00:49;8.00;99.90
43671;DHT22;29267;50.906;7.248;2023-04-07T05:03:23;8.00;99.90
43671;DHT22;29267;50.906;7.248;2023-04-07T05:05:49;8.00;99.90
43671;DHT22;29267;50.906;7.248;2023-04-07T05:08:14;8.00;99.90
43671;DHT22;29267;50.906;7.248;2023-04-07T05:10:40;8.00;99.90
43671;DHT22;29267;50.906;7.248;2023-04-07T05:13:06;8.00;99.90
43671;DHT22;29267;50.906;7.248;2023-04-07T05:15:32;8.00;99.90
43671;DHT22;29267;50.906;7.248;2023-04-07T05:17:57;8.00;99.90
43671;DHT22;29267;50.906;7.248;2023-04-07T05:20:23;8.00;99.90
43671;DHT22;29267;50.906;7.248;2023-04-07T05:22:48;8.00;99.90
43671;DHT22;29267;50.906;7.248;2023-04-07T05:25:14;8.00;99.90
43671;DHT22;29267;50.906;7.248;2023-04-07T05:27:39;8.00;99.90
43671;DHT22;29267;50.906;7.248;2023-04-07T05:30:06;7.90;99.90
43671;DHT22;29267;50.906;7.248;2023-04-07T05:32:31;7.90;99.90
43671;DHT22;29267;50.906;7.248;2023-04-07T05:34:57;7.90;99.90
43671;DHT22;29267;50.906;7.248;2023-04-07T05:37:22;8.00;99.90
43671;DHT22;29267;50.906;7.248;2023-04-07T05:39:48;8.00;99.90
43671;DHT22;29267;50.906;7.248;2023-04-07T05:42:13;7.90;99.90
43671;DHT22;29267;50.906;7.248;2023-04-07T05:44:39;7.90;99.90
43671;DHT22;29267;50.906;7.248;2023-04-07T05:47:05;7.90;99.90
43671;DHT22;29267;50.906;7.248;2023-04-07T05:49:34;8.00;99.90
43671;DHT22;29267;50.906;7.248;2023-04-07T05:52:00;8.10;99.90
43671;DHT22;29267;50.906;7.248;2023-04-07T05:54:27;8.00;99.90
43671;DHT22;29267;50.906;7.248;2023-04-07T05:56:53;8.00;99.90
43671;DHT22;29267;50.906;7.248;2023-04-07T05:59:19;8.10;99.90
43671;DHT22;29267;50.906;7.248;2023-04-07T06:01:44;8.00;99.90
43671;DHT22;29267;50.906;7.248;2023-04-07T06:04:10;8.00;99.90
43671;DHT22;29267;50.906;7.248;2023-04-07T06:06:36;8.00;99.90
43671;DHT22;29267;50.906;7.248;2023-04-07T06:09:02;8.00;99.90
43671;DHT22;29267;50.906;7.248;2023-04-07T06:11:28;8.00;99.90
43671;DHT22;29267;50.906;7.248;2023-04-07T06:13:53;7.90;99.90
43671;DHT22;29267;50.906;7.248;2023-04-07T06:16:19;7.90;99.90
43671;DHT22;29267;50.906;7.248;2023-04-07T06:18:45;8.00;99.90
43671;DHT22;29267;50.906;7.248;2023-04-07T06:21:10;8.00;99.90
43671;DHT22;29267;50.906;7.248;2023-04-07T06:23:36;8.00;99.90
43671;DHT22;29267;50.906;7.248;2023-04-07T06:26:01;8.00;99.90
43671;DHT22;29267;50.906;7.248;2023-04-07T06:28:27;8.10;99.90
43671;DHT22;29267;50.906;7.248;2023-04-07T06:30:53;8.10;99.90
43671;DHT22;29267;50.906;7.248;2023-04-07T06:33:18;8.10;99.90
43671;DHT22;29267;50.906;7.248;2023-04-07T06:35:48;8.10;99.90
43671;DHT22;29267;50.906;7.248;2023-04-07T06:38:13;8.10;99.90
43671;DHT22;29267;50.906;7.248;2023-04-07T06:40:39;8.10;99.90
43671;DHT22;29267;50.906;7.248;2023-04-07T06:43:05;8.10;99.90
43671;DHT22;29267;50.906;7.248;2023-04-07T06:45:31;8.20;99.90
43671;DHT22;29267;50.906;7.248;2023-04-07T06:47:56;8.20;99.90
43671;DHT22;29267;50.906;7.248;2023-04-07T06:50:22;8.20;99.90
43671;DHT22;29267;50.906;7.248;2023-04-07T06:52:47;8.10;99.90
43671;DHT22;29267;50.906;7.248;2023-04-07T06:55:13;8.00;99.90
43671;DHT22;29267;50.906;7.248;2023-04-07T06:57:38;8.00;99.90
43671;DHT22;29267;50.906;7.248;2023-04-07T07:00:05;8.10;99.90
43671;DHT22;29267;50.906;7.248;2023-04-07T07:02:32;8.10;99.90
43671;DHT22;29267;50.906;7.248;2023-04-07T07:04:58;8.10;99.90
43671;DHT22;29267;50.906;7.248;2023-04-07T07:07:24;8.10;99.90
43671;DHT22;29267;50.906;7.248;2023-04-07T07:09:51;8.20;99.90
43671;DHT22;29267;50.906;7.248;2023-04-07T07:12:16;8.10;99.90
43671;DHT22;29267;50.906;7.248;2023-04-07T07:14:42;8.10;99.90
43671;DHT22;29267;50.906;7.248;2023-04-07T07:17:08;8.20;99.90
43671;DHT22;29267;50.906;7.248;2023-04-07T07:19:34;8.20;99.90
43671;DHT22;29267;50.906;7.248;2023-04-07T07:22:00;8.20;99.90
43671;DHT22;29267;50.906;7.248;2023-04-07T07:24:29;8.20;99.90
43671;DHT22;29267;50.906;7.248;2023-04-07T07:26:54;8.30;99.90
43671;DHT22;29267;50.906;7.248;2023-04-07T07:29:21;8.30;99.90
43671;DHT22;29267;50.906;7.248;2023-04-07T07:31:47;8.30;99.90
43671;DHT22;29267;50.906;7.248;2023-04-07T07:34:13;8.20;99.90
43671;DHT22;29267;50.906;7.248;2023-04-07T07:36:38;8.30;99.90
43671;DHT22;29267;50.906;7.248;2023-04-07T07:39:05;8.30;99.90
43671;DHT22;29267;50.906;7.248;2023-04-07T07:41:31;8.40;99.90
43671;DHT22;29267;50.906;7.248;2023-04-07T07:43:56;8.50;99.90
43671;DHT22;29267;50.906;7.248;2023-04-07T07:46:22;8.50;99.90
43671;DHT22;29267;50.906;7.248;2023-04-07T07:48:50;8.70;99.90
43671;DHT22;29267;50.906;7.248;2023-04-07T07:51:16;8.80;99.90
43671;DHT22;29267;50.906;7.248;2023-04-07T07:53:43;8.80;99.90
43671;DHT22;29267;50.906;7.248;2023-04-07T07:56:09;8.80;99.90
43671;DHT22;29267;50.906;7.248;2023-04-07T07:58:34;8.80;99.90
43671;DHT22;29267;50.906;7.248;2023-04-07T08:01:00;8.80;99.90
43671;DHT22;29267;50.906;7.248;2023-04-07T08:03:26;8.70;99.90
43671;DHT22;29267;50.906;7.248;2023-04-07T08:05:51;8.80;99.90
43671;DHT22;29267;50.906;7.248;2023-04-07T08:08:17;8.80;99.90
43671;DHT22;29267;50.906;7.248;2023-04-07T08:10:42;8.80;99.90
43671;DHT22;29267;50.906;7.248;2023-04-07T08:13:08;8.80;99.90
43671;DHT22;29267;50.906;7.248;2023-04-07T08:15:34;8.70;99.90
43671;DHT22;29267;50.906;7.248;2023-04-07T08:18:00;8.70;99.90
43671;DHT22;29267;50.906;7.248;2023-04-07T08:20:29;8.80;99.90
43671;DHT22;29267;50.906;7.248;2023-04-07T08:22:55;8.80;99.90
43671;DHT22;29267;50.906;7.248;2023-04-07T08:25:21;8.80;99.90
43671;DHT22;29267;50.906;7.248;2023-04-07T08:27:47;8.90;99.90
43671;DHT22;29267;50.906;7.248;2023-04-07T08:30:13;9.00;99.90
43671;DHT22;29267;50.906;7.248;2023-04-07T08:32:43;9.00;99.90
43671;DHT22;29267;50.906;7.248;2023-04-07T08:35:10;9.00;99.90
43671;DHT22;29267;50.906;7.248;2023-04-07T08:37:37;9.10;99.90
43671;DHT22;29267;50.906;7.248;2023-04-07T08:40:03;9.10;99.90
43671;DHT22;29267;50.906;7.248;2023-04-07T08:42:31;9.20;99.90
43671;DHT22;29267;50.906;7.248;2023-04-07T08:45:01;9.30;99.90
43671;DHT22;29267;50.906;7.248;2023-04-07T08:47:30;9.50;99.90
43671;DHT22;29267;50.906;7.248;2023-04-07T08:50:00;9.40;99.90
43671;DHT22;29267;50.906;7.248;2023-04-07T08:52:33;9.50;99.90
43671;DHT22;29267;50.906;7.248;2023-04-07T08:54:59;9.60;99.90
43671;DHT22;29267;50.906;7.248;2023-04-07T08:57:29;9.60;99.90
43671;DHT22;29267;50.906;7.248;2023-04-07T08:59:58;9.70;99.90
43671;DHT22;29267;50.906;7.248;2023-04-07T09:02:29;9.70;99.90
43671;DHT22;29267;50.906;7.248;2023-04-07T09:04:55;9.70;99.90
43671;DHT22;29267;50.906;7.248;2023-04-07T09:07:21;9.60;99.90
43671;DHT22;29267;50.906;7.248;2023-04-07T09:09:47;9.70;99.90
43671;DHT22;29267;50.906;7.248;2023-04-07T09:12:12;9.80;99.90
43671;DHT22;29267;50.906;7.248;2023-04-07T09:14:38;9.80;99.90
43671;DHT22;29267;50.906;7.248;2023-04-07T09:17:03;9.80;99.90
43671;DHT22;29267;50.906;7.248;2023-04-07T09:19:29;9.70;99.90
43671;DHT22;29267;50.906;7.248;2023-04-07T09:21:55;9.60;99.90
43671;DHT22;29267;50.906;7.248;2023-04-07T09:24:26;9.60;99.90
43671;DHT22;29267;50.906;7.248;2023-04-07T09:27:11;9.60;99.90
43671;DHT22;29267;50.906;7.248;2023-04-07T09:29:38;9.30;99.90
43671;DHT22;29267;50.906;7.248;2023-04-07T09:32:04;9.40;99.90
43671;DHT22;29267;50.906;7.248;2023-04-07T09:34:34;9.40;99.90
43671;DHT22;29267;50.906;7.248;2023-04-07T09:37:01;9.50;99.90
43671;DHT22;29267;50.906;7.248;2023-04-07T09:39:27;9.50;99.90
43671;DHT22;29267;50.906;7.248;2023-04-07T09:41:53;9.50;99.90
43671;DHT22;29267;50.906;7.248;2023-04-07T09:44:20;9.60;99.90
43671;DHT22;29267;50.906;7.248;2023-04-07T09:46:55;9.40;99.90
43671;DHT22;29267;50.906;7.248;2023-04-07T09:49:22;9.30;99.90
43671;DHT22;29267;50.906;7.248;2023-04-07T09:51:53;9.40;99.90
43671;DHT22;29267;50.906;7.248;2023-04-07T09:54:36;9.50;99.90
43671;DHT22;29267;50.906;7.248;2023-04-07T09:57:04;9.50;99.90
43671;DHT22;29267;50.906;7.248;2023-04-07T09:59:31;9.50;99.90
43671;DHT22;29267;50.906;7.248;2023-04-07T10:01:57;9.40;99.90
43671;DHT22;29267;50.906;7.248;2023-04-07T10:04:24;9.30;99.90
43671;DHT22;29267;50.906;7.248;2023-04-07T10:06:51;9.30;99.90
43671;DHT22;29267;50.906;7.248;2023-04-07T10:09:17;9.40;99.90
43671;DHT22;29267;50.906;7.248;2023-04-07T10:11:43;9.40;99.90
43671;DHT22;29267;50.906;7.248;2023-04-07T10:14:10;9.30;99.90
43671;DHT22;29267;50.906;7.248;2023-04-07T10:16:41;9.40;99.90
43671;DHT22;29267;50.906;7.248;2023-04-07T10:19:07;9.40;99.90
43671;DHT22;29267;50.906;7.248;2023-04-07T10:21:41;9.40;99.90
43671;DHT22;29267;50.906;7.248;2023-04-07T10:24:18;9.40;99.90
43671;DHT22;29267;50.906;7.248;2023-04-07T10:26:52;9.30;99.90
43671;DHT22;29267;50.906;7.248;2023-04-07T10:29:20;9.20;99.90
43671;DHT22;29267;50.906;7.248;2023-04-07T10:31:46;9.30;99.90
43671;DHT22;29267;50.906;7.248;2023-04-07T10:34:12;9.20;99.90
43671;DHT22;29267;50.906;7.248;2023-04-07T10:37:10;9.10;99.90
43671;DHT22;29267;50.906;7.248;2023-04-07T10:39:38;9.20;99.90
43671;DHT22;29267;50.906;7.248;2023-04-07T10:42:03;9.30;99.90
43671;DHT22;29267;50.906;7.248;2023-04-07T10:47:07;9.50;99.90
43671;DHT22;29267;50.906;7.248;2023-04-07T10:49:34;9.50;99.90
43671;DHT22;29267;50.906;7.248;2023-04-07T10:54:41;9.60;99.90
43671;DHT22;29267;50.906;7.248;2023-04-07T10:57:16;9.70;99.90
43671;DHT22;29267;50.906;7.248;2023-04-07T11:02:34;10.00;99.90
43671;DHT22;29267;50.906;7.248;2023-04-07T11:05:00;10.00;99.90
43671;DHT22;29267;50.906;7.248;2023-04-07T11:07:46;10.20;99.90
43671;DHT22;29267;50.906;7.248;2023-04-07T11:10:14;10.30;99.90
43671;DHT22;29267;50.906;7.248;2023-04-07T11:12:41;10.40;99.90
43671;DHT22;29267;50.906;7.248;2023-04-07T11:15:20;10.50;99.90
43671;DHT22;29267;50.906;7.248;2023-04-07T11:18:05;10.50;99.90
43671;DHT22;29267;50.906;7.248;2023-04-07T11:21:00;10.30;99.90
43671;DHT22;29267;50.906;7.248;2023-04-07T11:23:26;10.30;99.90
43671;DHT22;29267;50.906;7.248;2023-04-07T11:25:59;10.30;99.90
43671;DHT22;29267;50.906;7.248;2023-04-07T11:28:26;10.20;99.90
43671;DHT22;29267;50.906;7.248;2023-04-07T11:30:52;10.20;99.90
43671;DHT22;29267;50.906;7.248;2023-04-07T11:33:24;10.10;99.90
43671;DHT22;29267;50.906;7.248;2023-04-07T11:35:57;10.00;99.90
43671;DHT22;29267;50.906;7.248;2023-04-07T11:38:25;10.20;99.90
43671;DHT22;29267;50.906;7.248;2023-04-07T11:40:52;10.30;99.90
43671;DHT22;29267;50.906;7.248;2023-04-07T11:43:23;10.30;99.90
43671;DHT22;29267;50.906;7.248;2023-04-07T11:46:09;10.30;99.90
43671;DHT22;29267;50.906;7.248;2023-04-07T11:48:37;10.40;99.90
43671;DHT22;29267;50.906;7.248;2023-04-07T11:51:04;10.40;99.90
43671;DHT22;29267;50.906;7.248;2023-04-07T11:53:34;10.30;99.90
43671;DHT22;29267;50.906;7.248;2023-04-07T11:56:10;10.30;99.90
43671;DHT22;29267;50.906;7.248;2023-04-07T11:58:46;10.10;99.90
43671;DHT22;29267;50.906;7.248;2023-04-07T12:01:11;10.10;99.90
43671;DHT22;29267;50.906;7.248;2023-04-07T12:03:57;10.00;99.90
43671;DHT22;29267;50.906;7.248;2023-04-07T12:06:34;9.70;99.90
43671;DHT22;29267;50.906;7.248;2023-04-07T12:09:03;9.60;99.90
43671;DHT22;29267;50.906;7.248;2023-04-07T12:11:30;9.60;99.90
43671;DHT22;29267;50.906;7.248;2023-04-07T12:13:56;9.60;99.90
43671;DHT22;29267;50.906;7.248;2023-04-07T12:16:22;9.70;99.90
43671;DHT22;29267;50.906;7.248;2023-04-07T12:18:48;9.90;99.90
43671;DHT22;29267;50.906;7.248;2023-04-07T12:21:16;10.10;99.90
43671;DHT22;29267;50.906;7.248;2023-04-07T12:23:41;10.30;99.90
43671;DHT22;29267;50.906;7.248;2023-04-07T12:26:07;10.60;99.90
43671;DHT22;29267;50.906;7.248;2023-04-07T12:28:33;10.80;99.90
43671;DHT22;29267;50.906;7.248;2023-04-07T12:30:58;10.90;99.90
43671;DHT22;29267;50.906;7.248;2023-04-07T12:33:24;10.80;99.90
43671;DHT22;29267;50.906;7.248;2023-04-07T12:35:50;10.80;99.90
43671;DHT22;29267;50.906;7.248;2023-04-07T12:38:16;10.80;99.90
43671;DHT22;29267;50.906;7.248;2023-04-07T12:40:42;10.60;99.90
43671;DHT22;29267;50.906;7.248;2023-04-07T12:43:08;10.60;99.90
43671;DHT22;29267;50.906;7.248;2023-04-07T12:45:33;10.50;99.90
43671;DHT22;29267;50.906;7.248;2023-04-07T12:47:59;10.50;99.90
43671;DHT22;29267;50.906;7.248;2023-04-07T12:50:25;10.40;99.90
43671;DHT22;29267;50.906;7.248;2023-04-07T12:52:51;10.40;99.90
43671;DHT22;29267;50.906;7.248;2023-04-07T12:55:17;10.50;99.90
43671;DHT22;29267;50.906;7.248;2023-04-07T12:57:43;10.50;99.90
43671;DHT22;29267;50.906;7.248;2023-04-07T13:00:09;10.60;99.90
43671;DHT22;29267;50.906;7.248;2023-04-07T13:02:35;10.60;99.90
43671;DHT22;29267;50.906;7.248;2023-04-07T13:05:02;10.70;99.90
43671;DHT22;29267;50.906;7.248;2023-04-07T13:07:27;10.80;99.90
43671;DHT22;29267;50.906;7.248;2023-04-07T13:09:53;11.00;99.90
43671;DHT22;29267;50.906;7.248;2023-04-07T13:12:19;11.10;99.90
43671;DHT22;29267;50.906;7.248;2023-04-07T13:14:45;11.20;99.90
43671;DHT22;29267;50.906;7.248;2023-04-07T13:17:11;11.50;99.90
43671;DHT22;29267;50.906;7.248;2023-04-07T13:19:36;11.40;99.90
43671;DHT22;29267;50.906;7.248;2023-04-07T13:22:02;11.60;99.90
43671;DHT22;29267;50.906;7.248;2023-04-07T13:24:28;11.70;99.90
43671;DHT22;29267;50.906;7.248;2023-04-07T13:26:54;11.70;99.90
43671;DHT22;29267;50.906;7.248;2023-04-07T13:29:20;11.60;99.90
43671;DHT22;29267;50.906;7.248;2023-04-07T13:31:46;11.70;99.90
43671;DHT22;29267;50.906;7.248;2023-04-07T13:34:13;11.80;99.90
43671;DHT22;29267;50.906;7.248;2023-04-07T13:36:39;11.90;99.90
43671;DHT22;29267;50.906;7.248;2023-04-07T13:39:05;11.90;99.90
43671;DHT22;29267;50.906;7.248;2023-04-07T13:41:31;12.10;99.90
43671;DHT22;29267;50.906;7.248;2023-04-07T13:43:57;12.10;99.90
43671;DHT22;29267;50.906;7.248;2023-04-07T13:46:24;12.00;99.90
43671;DHT22;29267;50.906;7.248;2023-04-07T13:48:49;11.80;99.90
43671;DHT22;29267;50.906;7.248;2023-04-07T13:51:15;11.70;99.90
43671;DHT22;29267;50.906;7.248;2023-04-07T13:53:41;11.20;99.90
43671;DHT22;29267;50.906;7.248;2023-04-07T13:56:07;10.90;99.90
43671;DHT22;29267;50.906;7.248;2023-04-07T13:58:34;11.00;99.90
43671;DHT22;29267;50.906;7.248;2023-04-07T14:01:00;11.10;99.90
43671;DHT22;29267;50.906;7.248;2023-04-07T14:03:26;11.30;99.90
43671;DHT22;29267;50.906;7.248;2023-04-07T14:05:52;10.90;99.90
43671;DHT22;29267;50.906;7.248;2023-04-07T14:08:19;11.00;99.90
43671;DHT22;29267;50.906;7.248;2023-04-07T14:10:47;11.10;99.90
43671;DHT22;29267;50.906;7.248;2023-04-07T14:13:12;11.10;99.90
43671;DHT22;29267;50.906;7.248;2023-04-07T14:15:38;11.00;99.90
43671;DHT22;29267;50.906;7.248;2023-04-07T14:18:03;10.90;99.90
43671;DHT22;29267;50.906;7.248;2023-04-07T14:20:29;10.50;99.90
43671;DHT22;29267;50.906;7.248;2023-04-07T14:22:54;10.30;99.90
43671;DHT22;29267;50.906;7.248;2023-04-07T14:25:20;10.20;99.90
43671;DHT22;29267;50.906;7.248;2023-04-07T14:27:46;10.30;99.90
43671;DHT22;29267;50.906;7.248;2023-04-07T14:30:12;10.50;99.90
43671;DHT22;29267;50.906;7.248;2023-04-07T14:32:37;10.60;99.90
43671;DHT22;29267;50.906;7.248;2023-04-07T14:35:03;10.80;99.90
43671;DHT22;29267;50.906;7.248;2023-04-07T14:37:29;10.70;99.90
43671;DHT22;29267;50.906;7.248;2023-04-07T14:39:55;11.00;99.90
43671;DHT22;29267;50.906;7.248;2023-04-07T14:42:21;11.20;99.90
43671;DHT22;29267;50.906;7.248;2023-04-07T14:44:46;11.30;99.90
43671;DHT22;29267;50.906;7.248;2023-04-07T14:47:12;11.50;99.90
43671;DHT22;29267;50.906;7.248;2023-04-07T14:49:38;11.50;99.90
43671;DHT22;29267;50.906;7.248;2023-04-07T14:52:03;11.60;99.90
43671;DHT22;29267;50.906;7.248;2023-04-07T14:54:29;11.50;99.90
43671;DHT22;29267;50.906;7.248;2023-04-07T14:56:55;11.80;99.90
43671;DHT22;29267;50.906;7.248;2023-04-07T14:59:20;11.50;99.90
43671;DHT22;29267;50.906;7.248;2023-04-07T15:01:46;11.50;99.90
43671;DHT22;29267;50.906;7.248;2023-04-07T15:04:12;11.40;99.90
43671;DHT22;29267;50.906;7.248;2023-04-07T15:06:40;11.20;99.90
43671;DHT22;29267;50.906;7.248;2023-04-07T15:09:07;11.30;99.90
43671;DHT22;29267;50.906;7.248;2023-04-07T15:11:33;11.20;99.90
43671;DHT22;29267;50.906;7.248;2023-04-07T15:13:58;11.10;99.90
43671;DHT22;29267;50.906;7.248;2023-04-07T15:16:25;11.00;99.90
43671;DHT22;29267;50.906;7.248;2023-04-07T15:18:50;11.00;99.90
43671;DHT22;29267;50.906;7.248;2023-04-07T15:21:16;10.90;99.90
43671;DHT22;29267;50.906;7.248;2023-04-07T15:23:43;10.90;99.90
43671;DHT22;29267;50.906;7.248;2023-04-07T15:26:10;10.90;99.90
43671;DHT22;29267;50.906;7.248;2023-04-07T15:28:37;11.00;99.90
43671;DHT22;29267;50.906;7.248;2023-04-07T15:31:03;11.00;99.90
43671;DHT22;29267;50.906;7.248;2023-04-07T15:33:34;11.10;99.90
43671;DHT22;29267;50.906;7.248;2023-04-07T15:36:00;10.90;99.90
43671;DHT22;29267;50.906;7.248;2023-04-07T15:38:27;10.70;99.90
43671;DHT22;29267;50.906;7.248;2023-04-07T15:40:53;10.90;99.90
43671;DHT22;29267;50.906;7.248;2023-04-07T15:43:19;10.70;99.90
43671;DHT22;29267;50.906;7.248;2023-04-07T15:45:44;10.60;99.90
43671;DHT22;29267;50.906;7.248;2023-04-07T15:48:10;10.70;99.90
43671;DHT22;29267;50.906;7.248;2023-04-07T15:50:36;10.60;99.90
43671;DHT22;29267;50.906;7.248;2023-04-07T15:53:06;10.70;99.90
43671;DHT22;29267;50.906;7.248;2023-04-07T15:55:32;10.70;99.90